createdAt,value
2022-08-23T00:03:34.292Z,82.47
2022-08-23T00:08:40.332Z,82.94
2022-08-23T00:13:52.758Z,82.91
2022-08-23T00:18:57.402Z,82.96
2022-08-23T00:24:01.939Z,83.04
2022-08-23T00:29:06.173Z,83.27
2022-08-23T00:34:10.633Z,83.46
2022-08-23T00:39:15.244Z,83.83
2022-08-23T00:44:52.462Z,84.04
2022-08-23T00:50:41.411Z,83.79
2022-08-23T00:55:51.754Z,83.89
2022-08-23T01:00:59.299Z,84.09
2022-08-23T01:06:48.070Z,84.13
2022-08-23T01:12:19.112Z,84.03
2022-08-23T01:17:49.028Z,84.18
2022-08-23T01:23:05.871Z,84.22
2022-08-23T01:28:10.605Z,84.37
2022-08-23T01:33:15.339Z,84.39
2022-08-23T01:38:19.902Z,84.42
2022-08-23T01:43:24.666Z,84.34
2022-08-23T01:48:29.017Z,84.50
2022-08-23T01:53:34.694Z,84.48
2022-08-23T01:58:39.691Z,84.50
2022-08-23T02:03:43.970Z,84.58
2022-08-23T02:09:04.981Z,84.63
2022-08-23T02:14:22.317Z,84.51
2022-08-23T02:19:27.284Z,84.74
2022-08-23T02:24:32.012Z,84.85
2022-08-23T02:29:39.195Z,84.88
2022-08-23T02:34:45.363Z,84.95
2022-08-23T02:40:06.779Z,84.85
2022-08-23T02:45:11.969Z,85.00
2022-08-23T02:50:16.449Z,85.14
2022-08-23T02:55:21.633Z,85.18
2022-08-23T03:00:26.618Z,85.21
2022-08-23T03:05:31.939Z,85.28
2022-08-23T03:10:36.364Z,85.39
2022-08-23T03:15:41.889Z,85.44
2022-08-23T03:20:47.213Z,86.23
2022-08-23T03:25:51.480Z,87.56
2022-08-23T03:30:56.518Z,88.36
2022-08-23T03:36:02.987Z,88.64
2022-08-23T03:41:09.598Z,88.86
2022-08-23T03:46:24.556Z,89.07
2022-08-23T03:51:34.247Z,89.20
2022-08-23T03:56:52.790Z,88.92
2022-08-23T04:01:57.780Z,88.82
2022-08-23T04:07:02.110Z,88.85
2022-08-23T04:12:11.949Z,89.03
2022-08-23T04:17:22.426Z,89.19
2022-08-23T04:22:26.673Z,89.04
2022-08-23T04:27:31.021Z,88.85
2022-08-23T04:32:35.349Z,88.80
2022-08-23T04:37:40.717Z,88.87
2022-08-23T04:42:45.069Z,88.92
2022-08-23T04:47:49.409Z,88.99
2022-08-23T04:52:54.480Z,88.93
2022-08-23T04:57:58.802Z,88.88
2022-08-23T05:03:03.152Z,88.82
2022-08-23T05:08:08.093Z,88.60
2022-08-23T05:13:12.335Z,88.39
2022-08-23T05:18:16.686Z,88.29
2022-08-23T05:23:25.932Z,88.11
2022-08-23T05:28:40.526Z,87.82
2022-08-23T05:33:45.744Z,87.50
2022-08-23T05:38:54.194Z,87.25
2022-08-23T05:44:00.798Z,87.05
2022-08-23T05:49:07.277Z,86.89
2022-08-23T05:54:11.511Z,86.61
2022-08-23T05:59:17.702Z,86.72
2022-08-23T06:04:25.013Z,86.36
2022-08-23T06:09:29.442Z,86.29
2022-08-23T06:14:33.842Z,86.29
2022-08-23T06:19:38.425Z,86.34
2022-08-23T06:24:42.895Z,85.82
2022-08-23T06:29:50.813Z,85.32
2022-08-23T06:35:32.874Z,85.08
2022-08-23T06:40:19.526Z,84.78
2022-08-23T06:45:33.945Z,84.14
2022-08-23T06:50:42.493Z,83.59
2022-08-23T06:55:52.212Z,83.25
2022-08-23T07:00:57.599Z,82.57
2022-08-23T07:06:02.425Z,81.98
2022-08-23T07:11:07.206Z,80.81
2022-08-23T07:16:12.169Z,80.52
2022-08-23T07:21:17.912Z,79.93
2022-08-23T07:26:24.672Z,79.13
2022-08-23T07:31:35.228Z,78.51
2022-08-23T07:36:43.981Z,78.14
2022-08-23T07:41:49.413Z,78.87
2022-08-23T07:46:53.894Z,79.38
2022-08-23T07:51:59.191Z,79.82
2022-08-23T07:57:03.747Z,80.30
2022-08-23T08:02:10.936Z,80.28
2022-08-23T08:07:20.554Z,79.58
2022-08-23T08:12:26.093Z,79.35
2022-08-23T08:17:30.312Z,78.74
2022-08-23T08:22:34.967Z,77.89
2022-08-23T08:27:39.415Z,76.08
2022-08-23T08:32:47.397Z,75.43
2022-08-23T08:37:52.288Z,74.28
2022-08-23T08:43:45.756Z,72.25
2022-08-23T08:48:56.255Z,70.33
2022-08-23T08:54:06.833Z,69.44
2022-08-23T08:59:22.015Z,68.05
2022-08-23T09:04:27.008Z,68.72
2022-08-23T09:10:03.743Z,68.54
2022-08-23T09:15:19.840Z,67.17
2022-08-23T09:20:32.897Z,67.11
2022-08-23T09:25:38.656Z,66.46
2022-08-23T09:30:57.391Z,64.50
2022-08-23T09:36:22.227Z,63.55
2022-08-23T09:41:44.044Z,63.34
2022-08-23T09:46:48.208Z,62.26
2022-08-23T09:51:54.749Z,62.40
2022-08-23T09:57:05.122Z,62.00
2022-08-23T10:02:35.318Z,61.66
2022-08-23T10:08:02.728Z,62.06
2022-08-23T10:13:08.292Z,60.89
2022-08-23T10:18:54.130Z,60.56
2022-08-23T10:24:14.159Z,58.54
2022-08-23T10:29:42.002Z,58.51
2022-08-23T10:35:26.393Z,58.35
2022-08-23T10:40:44.929Z,58.13
2022-08-23T10:45:51.593Z,58.15
2022-08-23T10:51:19.916Z,57.71
2022-08-23T10:56:29.086Z,57.27
2022-08-23T11:02:01.323Z,58.31
2022-08-23T11:07:29.416Z,58.69
2022-08-23T11:12:51.064Z,58.60
2022-08-23T11:18:04.039Z,58.01
2022-08-23T11:23:08.816Z,56.88
2022-08-23T11:28:24.540Z,56.60
2022-08-23T11:33:50.375Z,56.29
2022-08-23T11:38:56.155Z,55.49
2022-08-23T11:44:03.151Z,55.37
2022-08-23T11:49:30.419Z,54.81
2022-08-23T11:55:19.900Z,54.08
2022-08-23T12:01:13.134Z,53.99
2022-08-23T12:06:19.829Z,52.58
2022-08-23T12:11:56.098Z,52.24
2022-08-23T12:17:28.644Z,52.21
2022-08-23T12:22:55.035Z,52.06
2022-08-23T12:28:30.687Z,52.24
2022-08-23T12:34:38.369Z,51.28
2022-08-23T12:39:52.060Z,51.48
2022-08-23T12:45:16.622Z,52.38
2022-08-23T12:50:39.320Z,52.39
2022-08-23T12:55:51.701Z,53.84
2022-08-23T13:01:00.645Z,55.26
2022-08-23T13:06:19.838Z,56.90
2022-08-23T13:11:32.004Z,58.31
2022-08-23T13:16:47.272Z,59.51
2022-08-23T13:22:29.946Z,60.87
2022-08-23T13:27:59.079Z,62.08
2022-08-23T13:33:11.564Z,63.01
2022-08-23T13:38:22.153Z,63.25
2022-08-23T13:43:39.874Z,64.43
2022-08-23T13:48:58.290Z,65.00
2022-08-23T13:54:10.870Z,65.91
2022-08-23T13:59:33.524Z,67.74
2022-08-23T14:04:39.591Z,69.28
2022-08-23T14:09:44.666Z,71.69
2022-08-23T14:14:49.824Z,75.15
2022-08-23T14:20:32.521Z,76.10
2022-08-23T14:25:23.601Z,77.21
2022-08-23T14:30:43.355Z,78.14
2022-08-23T14:35:50.622Z,79.46
2022-08-23T14:41:03.956Z,80.06
2022-08-23T14:46:08.268Z,80.36
2022-08-23T14:51:31.158Z,80.06
2022-08-23T14:56:35.661Z,80.96
2022-08-23T15:01:40.591Z,81.85
2022-08-23T15:07:00.761Z,82.62
2022-08-23T15:17:44.969Z,82.93
2022-08-23T15:22:55.088Z,82.83
2022-08-23T15:28:04.241Z,82.71
2022-08-23T15:33:11.191Z,82.82
2022-08-23T15:38:17.885Z,82.64
2022-08-23T15:43:28.784Z,82.68
2022-08-23T15:48:51.532Z,82.66
2022-08-23T15:53:58.847Z,83.18
2022-08-23T15:59:05.099Z,83.42
2022-08-23T16:04:09.997Z,83.75
2022-08-23T16:09:22.809Z,84.02
2022-08-23T16:14:28.190Z,83.68
2022-08-23T16:19:33.342Z,84.17
2022-08-23T16:24:57.645Z,83.89
2022-08-23T16:30:07.269Z,83.56
2022-08-23T16:35:14.712Z,83.86
2022-08-23T16:40:19.303Z,83.67
2022-08-23T16:45:25.681Z,83.46
2022-08-23T16:50:33.417Z,83.71
2022-08-23T16:55:41.054Z,84.12
2022-08-23T17:00:45.893Z,84.23
2022-08-23T17:05:50.781Z,84.31
2022-08-23T17:10:56.526Z,84.24
2022-08-23T17:16:04.658Z,84.43
2022-08-23T17:21:09.782Z,84.57
2022-08-23T17:26:14.654Z,84.86
2022-08-23T17:31:20.492Z,85.09
2022-08-23T17:36:50.290Z,85.14
2022-08-23T17:41:54.874Z,85.04
2022-08-23T17:46:59.411Z,85.00
2022-08-23T17:52:04.598Z,85.07
2022-08-23T17:57:12.904Z,85.24
2022-08-23T18:02:23.645Z,85.43
2022-08-23T18:07:28.072Z,85.36
2022-08-23T18:12:32.344Z,85.20
2022-08-23T18:17:37.092Z,85.29
2022-08-23T18:22:42.906Z,85.26
2022-08-23T18:28:09.086Z,85.22
2022-08-23T18:33:18.369Z,85.14
2022-08-23T18:38:32.120Z,85.28
2022-08-23T18:43:37.406Z,85.44
2022-08-23T18:48:42.674Z,85.67
2022-08-23T18:53:57.780Z,85.94
2022-08-23T18:59:03.504Z,86.13
2022-08-23T19:04:11.626Z,86.43
2022-08-23T19:09:18.500Z,86.61
2022-08-23T19:14:23.068Z,86.79
2022-08-23T19:19:29.153Z,86.91
2022-08-23T19:24:35.530Z,86.99
2022-08-23T19:29:44.543Z,87.09
2022-08-23T19:34:50.999Z,87.14
2022-08-23T19:39:58.260Z,87.21
2022-08-23T19:45:05.308Z,87.18
2022-08-23T19:50:11.111Z,87.11
2022-08-23T19:55:16.413Z,87.16
2022-08-23T20:00:23.015Z,87.07
2022-08-23T20:05:30.142Z,87.11
2022-08-23T20:10:37.407Z,87.14
2022-08-23T20:15:43.500Z,87.14
2022-08-23T20:20:49.017Z,87.24
2022-08-23T20:25:54.591Z,87.41
2022-08-23T20:31:00.073Z,87.32
2022-08-23T20:36:06.295Z,87.30
2022-08-23T20:41:16.742Z,87.36
2022-08-23T20:46:21.834Z,87.40
2022-08-23T20:51:29.393Z,87.36
2022-08-23T20:56:35.141Z,87.13
2022-08-23T21:01:40.303Z,87.00
2022-08-23T21:06:50.502Z,86.97
2022-08-23T21:11:55.618Z,86.99
2022-08-23T21:17:00.373Z,86.94
2022-08-23T21:22:08.186Z,87.00
2022-08-23T21:27:12.927Z,87.00
2022-08-23T21:32:17.901Z,87.12
2022-08-23T21:37:22.961Z,87.05
2022-08-23T21:42:27.166Z,87.00
2022-08-23T21:47:31.539Z,87.09
2022-08-23T21:52:39.400Z,87.25
2022-08-23T21:57:44.004Z,87.31
2022-08-23T22:02:48.717Z,87.31
2022-08-23T22:07:53.733Z,87.33
2022-08-23T22:12:58.610Z,87.32
2022-08-23T22:18:05.512Z,87.47
2022-08-23T22:23:09.589Z,87.58
2022-08-23T22:28:13.830Z,87.75
2022-08-23T22:33:18.887Z,87.78
2022-08-23T22:38:23.225Z,88.01
2022-08-23T22:43:30.543Z,87.97
2022-08-23T22:48:35.941Z,88.01
2022-08-23T22:53:47.770Z,87.89
2022-08-23T22:58:53.966Z,87.83
2022-08-23T23:04:00.758Z,87.79
2022-08-23T23:09:09.080Z,87.65
2022-08-23T23:14:15.963Z,87.57
2022-08-23T23:19:40.323Z,87.61
2022-08-23T23:24:44.350Z,87.73
2022-08-23T23:29:48.793Z,87.67
2022-08-23T23:34:54.788Z,87.60
2022-08-23T23:40:03.745Z,87.51
2022-08-23T23:45:09.199Z,87.20
2022-08-23T23:50:14.512Z,87.18
2022-08-23T23:55:21.858Z,87.14
